Flight Track Log - Related Links

Times and Time Zones

All times are in EDT time to prevent confusion due to time zone crossing. See the UAL33 flight status page for this flight to view local times or setup timezone preferences in your user account.

Time Position Orientation Groundspeed Altitude Reporting Facility
EDT Latitude Longitude Course Direction KTS MPH feet Rate Location/Type
Wed 10:13:58 PM 41.9930 -87.9370 316° Northwest 183 211 1,600  Level FlightAware ADS-B
Wed 10:14:06 PM 41.9970 -87.9440 308° West 183 211 2,100 4,000 Climbing FlightAware ADS-B
Wed 10:14:13 PM 41.9980 -87.9510 281° West 183 211 2,600 4,400 Climbing FlightAware ADS-B
Wed 10:14:21 PM 41.9970 -87.9620 263° West 190 219 3,200 4,000 Climbing FlightAware ADS-B
Wed 10:14:25 PM 41.9960 -87.9670 255° West 196 226 3,400 3,000 Climbing FlightAware ADS-B
Wed 10:14:33 PM 41.9910 -87.9740 226° Southwest 209 241 3,800 2,667 Climbing FlightAware ADS-B
Wed 10:14:43 PM 41.9830 -87.9830 220° Southwest 228 262 4,200 2,483 Climbing FlightAware ADS-B
Wed 10:15:02 PM 41.9650 -87.9980 212° Southwest 264 304 5,000 2,710 Climbing FlightAware ADS-B
Wed 10:15:14 PM 41.9520 -88.0080 210° Southwest 276 318 5,600 3,892 Climbing FlightAware ADS-B
Wed 10:15:39 PM 41.9250 -88.0300 211° Southwest 283 326 7,400 4,667 Climbing FlightAware ADS-B
Wed 10:15:50 PM 41.9120 -88.0400 210° Southwest 279 321 8,400 4,500 Climbing FlightAware ADS-B
Wed 10:16:23 PM 41.8760 -88.0710 213° Southwest 287 330 10,700 3,917 Climbing FlightAware ADS-B
Wed 10:17:02 PM 41.8280 -88.1080 210° Southwest 319 367 13,100 3,380 Climbing FlightAware ADS-B
Wed 10:17:34 PM 41.7790 -88.1210 191° South 331 381 14,700 1,765 Climbing FlightAware ADS-B
Wed 10:18:10 PM 41.7240 -88.1310 188° South 341 392 15,100 1,371 Climbing FlightAware ADS-B
Wed 10:18:44 PM 41.6680 -88.1400 187° South 363 418 16,300 2,696 Climbing FlightAware ADS-B
Wed 10:19:19 PM 41.6090 -88.1490 187° South 373 429 18,200 3,167 Climbing FlightAware ADS-B
Wed 10:19:56 PM 41.5440 -88.1600 187° South 385 443 20,100 3,043 Climbing FlightAware ADS-B
Wed 10:20:28 PM 41.4900 -88.1690 187° South 393 452 21,700 3,055 Climbing FlightAware ADS-B
Wed 10:20:51 PM 41.4460 -88.1750 186° South 398 458 22,900 3,143 Climbing FlightAware ADS-B
Wed 10:21:31 PM 41.3720 -88.1950 191° South 390 449 25,000 2,514 Climbing FlightAware ADS-B
Wed 10:22:05 PM 41.3130 -88.2220 199° South 413 475 26,000 1,364 Climbing FlightAware ADS-B
Wed 10:22:37 PM 41.2560 -88.2470 198° South 438 504 26,500 1,075 Climbing FlightAware ADS-B
Wed 10:23:12 PM 41.1850 -88.2790 199° South 464 534 27,200 1,500 Climbing FlightAware ADS-B
Wed 10:23:45 PM 41.1180 -88.3090 199° South 476 548 28,200 1,886 Climbing FlightAware ADS-B
Wed 10:24:22 PM 41.0380 -88.3450 199° South 487 560 29,400 1,800 Climbing FlightAware ADS-B
Wed 10:24:55 PM 40.9640 -88.3780 199° South 499 574 30,300 1,565 Climbing FlightAware ADS-B
Wed 10:25:31 PM 40.8880 -88.4120 199° South 507 583 31,200 1,800 Climbing FlightAware ADS-B
Wed 10:26:05 PM 40.8090 -88.4470 199° South 508 585 32,400 2,250 Climbing FlightAware ADS-B
Wed 10:26:43 PM 40.7260 -88.4840 199° South 501 577 33,900 2,314 Climbing FlightAware ADS-B
Wed 10:27:15 PM 40.6560 -88.5160 199° South 496 571 35,100 2,118 Climbing FlightAware ADS-B
Wed 10:27:51 PM 40.5780 -88.5500 198° South 493 567 36,300 1,714 Climbing FlightAware ADS-B
Wed 10:28:25 PM 40.5110 -88.5950 207° Southwest 462 532 37,100 1,320 Climbing FlightAware ADS-B
Wed 10:28:41 PM 40.4910 -88.6250 229° Southwest 451 519 37,400 1,125 Climbing FlightAware ADS-B
Wed 10:29:13 PM 40.4620 -88.7060 245° Southwest 439 505 38,000 1,125 Climbing FlightAware ADS-B
Wed 10:29:45 PM 40.4280 -88.7800 239° Southwest 456 525 38,600 1,083 Climbing FlightAware ADS-B
Wed 10:30:25 PM 40.3730 -88.8640 229° Southwest 453 521 39,300 1,026 Climbing FlightAware ADS-B
Wed 10:31:01 PM 40.3280 -88.9400 232° Southwest 457 526 39,900 636 Climbing FlightAware ADS-B
Wed 10:31:31 PM 40.2860 -89.0070 231° Southwest 465 535 40,000 86 Climbing FlightAware ADS-B
Wed 10:32:11 PM 40.2310 -89.0940 230° Southwest 465 535 40,000  Level FlightAware ADS-B
Wed 10:32:43 PM 40.1870 -89.1630 230° Southwest 465 535 40,000  Level FlightAware ADS-B
Wed 10:33:21 PM 40.1360 -89.2430 230° Southwest 461 531 40,000  Level FlightAware ADS-B
Wed 10:33:57 PM 40.0850 -89.3220 230° Southwest 460 529 40,000  Level FlightAware ADS-B
Wed 10:34:29 PM 40.0430 -89.3890 231° Southwest 461 531 40,000  Level FlightAware ADS-B
Wed 10:35:04 PM 39.9950 -89.4630 230° Southwest 461 531 40,000  Level FlightAware ADS-B
Wed 10:35:41 PM 39.9460 -89.5400 230° Southwest 462 532 40,000  Level FlightAware ADS-B
Wed 10:36:15 PM 39.8980 -89.6150 230° Southwest 461 531 40,000  Level FlightAware ADS-B
Wed 10:36:51 PM 39.8480 -89.6920 230° Southwest 460 529 40,000  Level FlightAware ADS-B
Wed 10:37:27 PM 39.8000 -89.7660 230° Southwest 459 528 40,000  Level FlightAware ADS-B
Wed 10:37:59 PM 39.7550 -89.8360 230° Southwest 458 527 40,000  Level FlightAware ADS-B
Wed 10:38:35 PM 39.7080 -89.9080 230° Southwest 458 527 40,000  Level FlightAware ADS-B
Wed 10:39:09 PM 39.6600 -89.9810 230° Southwest 459 528 40,000  Level FlightAware ADS-B
Wed 10:39:42 PM 39.6150 -90.0500 230° Southwest 456 525 40,000  Level FlightAware ADS-B
Wed 10:40:14 PM 39.5850 -90.0960 230° Southwest 455 524 40,000  Level FlightAware ADS-B
Wed 10:40:50 PM 39.5230 -90.1910 230° Southwest 456 525 40,000  Level FlightAware ADS-B
Wed 10:41:24 PM 39.4770 -90.2610 230° Southwest 458 527 40,000  Level FlightAware ADS-B
Wed 10:41:56 PM 39.4320 -90.3310 230° Southwest 457 526 40,000  Level FlightAware ADS-B
Wed 10:42:46 PM 39.3630 -90.4340 229° Southwest 461 531 40,000  Level FlightAware ADS-B
Wed 10:43:20 PM 39.3180 -90.5030 230° Southwest 463 533 40,000  Level FlightAware ADS-B
Wed 10:43:52 PM 39.2710 -90.5730 229° Southwest 463 533 40,000  Level FlightAware ADS-B
Wed 10:44:32 PM 39.2160 -90.6570 230° Southwest 466 536 40,000  Level FlightAware ADS-B
Wed 10:45:08 PM 39.1650 -90.7330 229° Southwest 467 537 40,000  Level FlightAware ADS-B
Wed 10:45:40 PM 39.1200 -90.8000 229° Southwest 467 537 40,000  Level FlightAware ADS-B
Wed 10:46:26 PM 39.0630 -90.8840 229° Southwest 468 539 40,000  Level FlightAware ADS-B
Wed 10:46:56 PM 39.0130 -90.9600 230° Southwest 468 539 40,000  Level FlightAware ADS-B
Wed 10:47:33 PM 38.9590 -91.0390 229° Southwest 468 539 40,000  Level FlightAware ADS-B
Wed 10:48:10 PM 38.9080 -91.1160 230° Southwest 467 537 40,000  Level FlightAware ADS-B
Wed 10:48:50 PM 38.8500 -91.2010 229° Southwest 469 540 40,000  Level FlightAware ADS-B
Wed 10:49:32 PM 38.7930 -91.2860 229° Southwest 471 542 40,000  Level FlightAware ADS-B
Wed 10:50:04 PM 38.7460 -91.3550 229° Southwest 471 542 40,000  Level FlightAware ADS-B
Wed 10:50:42 PM 38.6920 -91.4340 229° Southwest 472 543 40,000  Level FlightAware ADS-B
Wed 10:51:18 PM 38.6390 -91.5120 229° Southwest 472 543 40,000  Level FlightAware ADS-B
Wed 10:51:50 PM 38.5950 -91.5760 229° Southwest 473 544 40,000  Level FlightAware ADS-B
Wed 10:52:25 PM 38.5420 -91.6530 229° Southwest 474 545 40,000  Level FlightAware ADS-B
Wed 10:53:00 PM 38.4930 -91.7250 229° Southwest 475 547 40,000  Level FlightAware ADS-B
Wed 10:53:38 PM 38.4390 -91.8020 228° Southwest 474 545 40,000  Level FlightAware ADS-B
Wed 10:54:08 PM 38.3950 -91.8660 229° Southwest 474 545 40,000  Level FlightAware ADS-B
Wed 10:54:47 PM 38.3390 -91.9470 229° Southwest 473 544 40,000  Level FlightAware ADS-B
Wed 10:55:22 PM 38.2870 -92.0210 228° Southwest 471 542 40,000  Level FlightAware ADS-B
Wed 10:55:56 PM 38.2370 -92.0940 229° Southwest 471 542 40,000  Level FlightAware ADS-B
Wed 10:56:32 PM 38.1860 -92.1670 228° Southwest 469 540 40,000  Level FlightAware ADS-B
Wed 10:57:12 PM 38.1280 -92.2500 228° Southwest 470 541 40,000  Level FlightAware ADS-B
Wed 10:57:46 PM 38.0790 -92.3200 228° Southwest 470 541 40,000  Level FlightAware ADS-B
Wed 10:58:26 PM 38.0210 -92.4020 228° Southwest 472 543 40,000  Level FlightAware ADS-B
Wed 10:58:58 PM 37.9720 -92.4680 227° Southwest 479 551 40,000  Level FlightAware ADS-B
Wed 10:59:34 PM 37.9110 -92.5320 220° Southwest 490 564 40,000  Level FlightAware ADS-B
Wed 11:00:00 PM 37.8630 -92.5770 217° Southwest 489 563 40,000  Level FlightAware ADS-B
Wed 11:00:48 PM 37.7770 -92.6580 217° Southwest 490 564 40,000  Level FlightAware ADS-B
Wed 11:01:24 PM 37.7110 -92.7200 217° Southwest 489 563 40,000  Level FlightAware ADS-B
Wed 11:01:56 PM 37.6520 -92.7760 217° Southwest 489 563 40,000  Level FlightAware ADS-B
Wed 11:02:40 PM 37.5750 -92.8470 216° Southwest 490 564 40,000  Level FlightAware ADS-B
Wed 11:03:12 PM 37.5140 -92.9040 217° Southwest 491 565 40,000  Level FlightAware ADS-B
Wed 11:03:48 PM 37.4480 -92.9660 217° Southwest 490 564 40,000  Level FlightAware ADS-B
Wed 11:04:26 PM 37.3790 -93.0290 216° Southwest 491 565 40,000  Level FlightAware ADS-B
Wed 11:04:58 PM 37.3210 -93.0830 217° Southwest 488 562 40,000  Level FlightAware ADS-B
Wed 11:05:34 PM 37.2550 -93.1440 216° Southwest 487 560 40,000  Level FlightAware ADS-B
Wed 11:06:10 PM 37.1900 -93.2030 216° Southwest 489 563 40,000  Level FlightAware ADS-B
Wed 11:06:46 PM 37.1240 -93.2650 217° Southwest 487 560 40,000  Level FlightAware ADS-B
Wed 11:07:18 PM 37.0670 -93.3170 216° Southwest 486 559 40,000  Level FlightAware ADS-B
Wed 11:07:56 PM 36.9970 -93.3810 216° Southwest 487 560 40,000  Level FlightAware ADS-B
Wed 11:08:28 PM 36.9400 -93.4330 216° Southwest 485 558 40,000  Level FlightAware ADS-B
Wed 11:09:04 PM 36.8730 -93.4940 216° Southwest 482 555 40,000  Level FlightAware ADS-B
Wed 11:09:40 PM 36.8090 -93.5530 216° Southwest 481 554 40,000  Level FlightAware ADS-B
Wed 11:10:16 PM 36.7450 -93.6100 216° Southwest 481 554 40,000  Level FlightAware ADS-B
Wed 11:10:52 PM 36.6810 -93.6690 216° Southwest 479 551 40,000  Level FlightAware ADS-B
Wed 11:11:22 PM 36.6260 -93.7180 216° Southwest 476 548 40,000  Level FlightAware ADS-B
Wed 11:12:00 PM 36.5590 -93.7780 216° Southwest 478 550 40,000  Level FlightAware ADS-B
Wed 11:12:34 PM 36.4970 -93.8350 216° Southwest 479 551 40,000  Level FlightAware ADS-B
Wed 11:13:10 PM 36.4330 -93.8920 216° Southwest 479 551 40,000  Level FlightAware ADS-B
Wed 11:13:46 PM 36.3680 -93.9500 216° Southwest 479 551 40,000  Level FlightAware ADS-B
Wed 11:14:22 PM 36.3030 -94.0080 216° Southwest 479 551 40,000  Level FlightAware ADS-B
Wed 11:14:54 PM 36.2460 -94.0590 216° Southwest 480 552 40,000  Level FlightAware ADS-B
Wed 11:15:30 PM 36.1810 -94.1170 216° Southwest 482 555 40,000  Level FlightAware ADS-B
Wed 11:16:02 PM 36.1230 -94.1690 216° Southwest 482 555 40,000  Level FlightAware ADS-B
Wed 11:16:38 PM 36.0570 -94.2270 215° Southwest 483 556 40,000  Level FlightAware ADS-B
Wed 11:17:14 PM 35.9930 -94.2840 216° Southwest 485 558 40,000  Level FlightAware ADS-B
Wed 11:17:46 PM 35.9330 -94.3370 216° Southwest 487 560 40,000  Level FlightAware ADS-B
Wed 11:18:26 PM 35.8600 -94.4010 215° Southwest 487 560 40,000  Level FlightAware ADS-B
Wed 11:18:58 PM 35.8020 -94.4520 215° Southwest 488 562 40,000  Level FlightAware ADS-B
Wed 11:19:34 PM 35.7340 -94.5120 216° Southwest 489 563 40,000  Level FlightAware ADS-B
Wed 11:20:11 PM 35.6690 -94.5690 215° Southwest 492 566 40,000  Level FlightAware ADS-B
Wed 11:20:44 PM 35.6040 -94.6260 215° Southwest 494 568 40,000  Level FlightAware ADS-B
Wed 11:21:20 PM 35.5380 -94.6840 216° Southwest 494 568 40,000  Level FlightAware ADS-B
Wed 11:21:55 PM 35.4740 -94.7400 215° Southwest 492 566 40,000  Level FlightAware ADS-B
Wed 11:22:30 PM 35.4080 -94.7970 215° Southwest 491 565 40,000  Level FlightAware ADS-B
Wed 11:23:04 PM 35.3450 -94.8510 215° Southwest 491 565 40,000  Level FlightAware ADS-B
Wed 11:24:00 PM 35.2490 -94.9350 216° Southwest 491 565 40,000  Level FlightAware ADS-B
Wed 11:24:35 PM 35.1770 -94.9970 215° Southwest 494 568 40,000  Level FlightAware ADS-B
Wed 11:25:11 PM 35.1080 -95.0570 215° Southwest 496 571 40,000  Level FlightAware ADS-B
Wed 11:25:47 PM 35.0430 -95.1130 215° Southwest 492 566 40,000  Level FlightAware ADS-B
Wed 11:26:19 PM 34.9810 -95.1650 215° Southwest 492 566 40,000  Level FlightAware ADS-B
Wed 11:26:55 PM 34.9150 -95.2220 215° Southwest 491 565 40,000  Level FlightAware ADS-B
Wed 11:27:33 PM 34.8440 -95.2830 215° Southwest 490 564 40,000  Level FlightAware ADS-B
Wed 11:28:05 PM 34.7850 -95.3330 215° Southwest 491 565 40,000  Level FlightAware ADS-B
Wed 11:28:39 PM 34.7220 -95.3870 215° Southwest 491 565 40,000  Level FlightAware ADS-B
Wed 11:29:17 PM 34.6500 -95.4480 215° Southwest 492 566 40,000  Level FlightAware ADS-B
Wed 11:29:51 PM 34.5880 -95.5010 215° Southwest 493 567 40,000  Level FlightAware ADS-B
Wed 11:30:27 PM 34.5190 -95.5590 215° Southwest 493 567 40,000  Level FlightAware ADS-B
Wed 11:30:59 PM 34.4590 -95.6100 215° Southwest 494 568 40,000  Level FlightAware ADS-B
Wed 11:31:35 PM 34.3920 -95.6660 215° Southwest 496 571 40,000  Level FlightAware ADS-B
Wed 11:32:11 PM 34.3240 -95.7240 215° Southwest 496 571 40,000  Level FlightAware ADS-B
Wed 11:32:47 PM 34.2560 -95.7800 214° Southwest 497 572 40,000  Level FlightAware ADS-B
Wed 11:33:19 PM 34.1960 -95.8310 215° Southwest 497 572 40,000  Level FlightAware ADS-B
Wed 11:33:55 PM 34.1280 -95.8880 215° Southwest 497 572 40,000  Level FlightAware ADS-B
Wed 11:34:31 PM 34.0600 -95.9440 214° Southwest 498 573 40,000  Level FlightAware ADS-B
Wed 11:35:03 PM 33.9990 -95.9960 215° Southwest 501 577 40,000  Level FlightAware ADS-B
Wed 11:35:37 PM 33.9330 -96.0510 215° Southwest 502 578 40,000  Level FlightAware ADS-B
Wed 11:36:19 PM 33.8521 -96.1173 214° Southwest 502 578 40,000  Level FlightAware ADS-B
Wed 11:36:51 PM 33.7920 -96.1670 215° Southwest 503 579 40,000  Level FlightAware ADS-B
Wed 11:37:27 PM 33.7240 -96.2230 214° Southwest 504 580 40,000  Level FlightAware ADS-B
Wed 11:38:01 PM 33.6590 -96.2770 215° Southwest 504 580 40,000  Level FlightAware ADS-B
Wed 11:38:34 PM 33.5950 -96.3300 215° Southwest 506 582 40,000  Level FlightAware ADS-B
Wed 11:38:47 PM 33.5680 -96.3519 214° Southwest 505 581 40,000  Level FlightAware ADS-B
Wed 11:39:24 PM 33.4961 -96.4109 214° Southwest 507 583 40,000  Level FlightAware ADS-B
Wed 11:39:55 PM 33.4377 -96.4589 214° Southwest 508 585 40,000  Level FlightAware ADS-B
Wed 11:40:31 PM 33.3676 -96.5164 214° Southwest 508 585 40,000  Level FlightAware ADS-B
Wed 11:41:02 PM 33.3079 -96.5652 214° Southwest 508 585 40,000  Level FlightAware ADS-B
Wed 11:41:32 PM 33.2489 -96.6132 214° Southwest 508 585 40,000  Level FlightAware ADS-B
Wed 11:42:02 PM 33.1903 -96.6608 214° Southwest 507 583 40,000  Level FlightAware ADS-B
Wed 11:42:38 PM 33.1207 -96.7175 214° Southwest 506 582 40,000  Level FlightAware ADS-B
Wed 11:43:15 PM 33.0493 -96.7733 213° Southwest 504 580 40,000  Level FlightAware ADS-B
Wed 11:43:25 PM 33.0271 -96.7841 202° Southwest 509 586 40,000  Level FlightAware ADS-B
Wed 11:43:36 PM 33.0028 -96.7914 194° South 511 588 40,000  Level FlightAware ADS-B
Wed 11:43:45 PM 32.9796 -96.7944 186° South 515 593 40,000  Level FlightAware ADS-B
Wed 11:44:07 PM 32.9281 -96.7888 175° South 520 598 40,000  Level FlightAware ADS-B
Wed 11:44:38 PM 32.8548 -96.7744 171° South 521 600 40,000  Level FlightAware ADS-B
Wed 11:45:18 PM 32.7592 -96.7554 171° South 520 598 40,000  Level FlightAware ADS-B
Wed 11:45:59 PM 32.6613 -96.7359 170° South 520 598 40,000  Level FlightAware ADS-B
Wed 11:47:19 PM 32.4724 -96.6989 170° South 520 598 40,000  Level FlightAware ADS-B
Wed 11:47:54 PM 32.3893 -96.6827 171° South 519 597 40,000  Level FlightAware ADS-B
Wed 11:48:33 PM 32.2960 -96.6645 171° South 519 597 40,000  Level FlightAware ADS-B
Wed 11:49:12 PM 32.2050 -96.6468 170° South 519 597 40,000  Level FlightAware ADS-B
Wed 11:49:43 PM 32.1315 -96.6326 171° South 520 598 40,000  Level FlightAware ADS-B
Wed 11:51:15 PM 31.9137 -96.5904 171° South 519 597 40,000 -848 Level FlightAware ADS-B
Wed 11:52:47 PM 31.6973 -96.5486 171° South 512 589 37,400 -2,028 Descending FlightAware ADS-B
Wed 11:53:37 PM 31.5789 -96.5258 171° South 506 582 35,200 -2,696 Descending FlightAware ADS-B
Wed 11:53:56 PM 31.5367 -96.5159 169° South 505 581 34,300 -3,038 Descending FlightAware ADS-B
Wed 11:54:56 PM 31.4006 -96.4695 162° South 506 582 31,200 -2,901 Descending FlightAware ADS-B
Wed 11:55:27 PM 31.3338 -96.4446 162° South 490 564 29,900 -2,164 Descending FlightAware ADS-B
Wed 11:55:57 PM 31.2687 -96.4203 162° South 490 564 29,000 -900 Descending FlightAware ADS-B
Wed 11:56:27 PM 31.2046 -96.3964 162° South 465 535 29,000  Level FlightAware ADS-B
Wed 11:56:57 PM 31.1444 -96.3739 162° South 456 525 29,000  Level FlightAware ADS-B
Wed 11:57:21 PM 31.0957 -96.3602 170° South 456 525 29,000  Level FlightAware ADS-B
Wed 11:58:04 PM 31.0050 -96.3566 179° South 459 528 29,000  Level FlightAware ADS-B
Wed 11:58:34 PM 30.9408 -96.3556 179° South 459 528 29,000 -689 Level FlightAware ADS-B
Wed 11:59:05 PM 30.8756 -96.3547 179° South 455 524 28,300 -1,545 Descending FlightAware ADS-B
Thu 12:00:15 AM 30.7301 -96.3527 179° South 435 501 26,400 -1,624 Descending FlightAware ADS-B
Thu 12:00:30 AM 30.6998 -96.3489 171° South 430 495 26,000 -1,440 Descending FlightAware ADS-B
Thu 12:00:40 AM 30.6821 -96.3437 166° South 428 493 25,800 -2,286 Descending FlightAware ADS-B
Thu 12:00:51 AM 30.6602 -96.3340 156° South 429 494 25,200 -3,200 Descending FlightAware ADS-B
Thu 12:00:55 AM 30.6533 -96.3295 151° Southeast 430 495 25,000 -3,231 Descending FlightAware ADS-B
Thu 12:01:04 AM 30.6390 -96.3170 140° Southeast 431 496 24,500 -3,231 Descending FlightAware ADS-B
Thu 12:01:08 AM 30.6335 -96.3109 136° Southeast 429 494 24,300 -3,231 Descending FlightAware ADS-B
Thu 12:01:17 AM 30.6223 -96.2943 126° Southeast 427 491 23,800 -3,231 Descending FlightAware ADS-B
Thu 12:01:21 AM 30.6185 -96.2869 121° Southeast 425 489 23,600 -3,353 Descending FlightAware ADS-B
Thu 12:01:51 AM 30.5948 -96.2247 114° Southeast 409 471 21,900 -3,194 Descending FlightAware ADS-B
Thu 12:02:23 AM 30.5724 -96.1634 113° Southeast 385 443 20,300 -3,000 Descending FlightAware ADS-B
Thu 12:02:47 AM 30.5560 -96.1192 113° Southeast 378 435 19,100 -3,000 Descending FlightAware ADS-B
Thu 12:04:57 AM 30.4618 -95.8859 116° Southeast 352 405 12,600 -2,877 Descending FlightAware ADS-B
Thu 12:05:13 AM 30.4476 -95.8606 125° Southeast 354 407 12,100 -1,565 Descending FlightAware ADS-B
Thu 12:05:20 AM 30.4400 -95.8502 130° Southeast 352 405 12,000 -390 Descending FlightAware ADS-B
Thu 12:06:30 AM 30.3587 -95.7636 138° Southeast 331 381 11,600 -720 Descending FlightAware ADS-B
Thu 12:07:00 AM 30.3241 -95.7274 138° Southeast 331 381 10,800 -791 Descending FlightAware ADS-B
Thu 12:08:01 AM 30.2551 -95.6551 138° Southeast 328 377 10,400 -432 Descending FlightAware ADS-B
Thu 12:08:51 AM 30.1984 -95.5962 138° Southeast 327 376 10,000 -667 Descending FlightAware ADS-B
Thu 12:09:22 AM 30.1646 -95.5612 138° Southeast 312 359 9,500 -1,174 Descending FlightAware ADS-B
Thu 12:09:37 AM 30.1488 -95.5447 138° Southeast 300 345 9,100 -1,350 Descending FlightAware ADS-B
Thu 12:10:02 AM 30.1227 -95.5174 138° Southeast 296 341 8,600 -1,313 Descending FlightAware ADS-B
Thu 12:10:09 AM 30.1163 -95.5091 128° Southeast 293 337 8,400 -1,385 Descending FlightAware ADS-B
Thu 12:10:15 AM 30.1126 -95.5027 124° Southeast 291 335 8,300 -1,000 Descending FlightAware ADS-B
Thu 12:10:27 AM 30.1068 -95.4841 105° East 284 327 8,100 -1,364 Descending FlightAware ADS-B
Thu 12:10:37 AM 30.1060 -95.4691 90° East 281 323 7,800 -1,500 Descending FlightAware ADS-B
Thu 12:10:51 AM 30.1062 -95.4481 89° East 282 325 7,500 -964 Descending FlightAware ADS-B
Thu 12:11:33 AM 30.1061 -95.3863 90° East 278 320 6,900 -632 Descending FlightAware ADS-B
Thu 12:11:48 AM 30.1061 -95.3633 90° East 277 319 6,900 -323 Level FlightAware ADS-B
Thu 12:13:06 AM 30.1061 -95.2486 90° East 275 316 6,400 -516 Descending FlightAware ADS-B
Thu 12:13:21 AM 30.1061 -95.2263 90° East 275 316 6,100 -1,161 Descending FlightAware ADS-B
Thu 12:13:37 AM 30.1061 -95.2040 90° East 275 316 5,800 -1,161 Descending FlightAware ADS-B
Thu 12:13:52 AM 30.1061 -95.1818 90° East 272 313 5,500 -1,071 Descending FlightAware ADS-B
Thu 12:14:05 AM 30.1061 -95.1622 90° East 263 303 5,300 -1,000 Descending FlightAware ADS-B
Thu 12:14:16 AM 30.1060 -95.1470 90° East 257 296 5,100 -1,000 Descending FlightAware ADS-B
Thu 12:14:23 AM 30.1055 -95.1378 97° East 253 291 5,000 -1,091 Descending FlightAware ADS-B
Thu 12:14:27 AM 30.1048 -95.1333 100° East 251 289 4,900 -1,091 Descending FlightAware ADS-B
Thu 12:14:34 AM 30.1017 -95.1239 115° Southeast 248 285 4,800 -947 Descending FlightAware ADS-B
Thu 12:14:46 AM 30.0935 -95.1123 137° Southeast 246 283 4,600 -800 Descending FlightAware ADS-B
Thu 12:14:49 AM 30.0907 -95.1099 143° Southeast 244 281 4,600 -1,000 Level FlightAware ADS-B
Thu 12:14:52 AM 30.0878 -95.1079 149° Southeast 241 277 4,500 -2,000 Descending FlightAware ADS-B
Thu 12:14:55 AM 30.0840 -95.1060 157° South 240 276 4,400 -1,800 Descending FlightAware ADS-B
Thu 12:15:02 AM 30.0764 -95.1039 171° South 238 274 4,200 -1,636 Descending FlightAware ADS-B
Thu 12:15:06 AM 30.0720 -95.1038 179° South 238 274 4,100 -857 Descending FlightAware ADS-B
Thu 12:15:09 AM 30.0687 -95.1042 186° South 238 274 4,100 -600 Level FlightAware ADS-B
Thu 12:15:16 AM 30.0618 -95.1059 194° South 239 275 4,000 -1,091 Descending FlightAware ADS-B
Thu 12:15:20 AM 30.0569 -95.1076 197° South 237 273 3,900 -316 Descending FlightAware ADS-B
Thu 12:15:35 AM 30.0424 -95.1134 200° South 208 239 3,900  Level FlightAware ADS-B
Thu 12:15:39 AM 30.0390 -95.1150 202° Southwest 203 234 3,900  Level FlightAware ADS-B
Thu 12:15:43 AM 30.0362 -95.1166 206° Southwest 202 232 3,900  Level FlightAware ADS-B
Thu 12:15:54 AM 30.0269 -95.1228 210° Southwest 196 226 3,900  Level FlightAware ADS-B
Thu 12:16:03 AM 30.0208 -95.1281 222° Southwest 191 220 3,900 -1,034 Level FlightAware ADS-B
Thu 12:16:23 AM 30.0086 -95.1433 229° Southwest 190 219 3,400 -1,333 Descending FlightAware ADS-B
Thu 12:16:39 AM 30.0008 -95.1559 239° Southwest 188 216 3,100 -1,143 Descending FlightAware ADS-B
Thu 12:16:44 AM 29.9984 -95.1612 242° Southwest 188 216 3,000 -1,333 Descending FlightAware ADS-B
Thu 12:16:48 AM 29.9971 -95.1645 246° West 188 216 2,900 -1,500 Descending FlightAware ADS-B
Thu 12:16:52 AM 29.9960 -95.1677 248° West 188 216 2,800 -1,500 Descending FlightAware ADS-B
Thu 12:16:56 AM 29.9949 -95.1715 252° West 188 216 2,700 -1,111 Descending FlightAware ADS-B
Thu 12:17:19 AM 29.9932 -95.1947 272° West 177 204 2,300 -980 Descending FlightAware ADS-B
Thu 12:17:45 AM 29.9938 -95.2167 272° West 154 177 1,900 -878 Descending FlightAware ADS-B
Thu 12:18:00 AM 29.9937 -95.2285 269° West 145 167 1,700 -1,143 Descending FlightAware ADS-B
Thu 12:18:06 AM 29.9935 -95.2336 267° West 140 161 1,500 -1,125 Descending FlightAware ADS-B
Thu 12:18:16 AM 29.9935 -95.2410 270° West 139 160 1,400 -667 Descending FlightAware ADS-B
Thu 12:18:24 AM 29.9935 -95.2470 270° West 137 158 1,300 -632 Descending FlightAware ADS-B
Thu 12:18:35 AM 29.9935 -95.2543 270° West 137 158 1,200 -692 Descending FlightAware ADS-B
Thu 12:18:50 AM 29.9935 -95.2656 270° West 135 155 1,000 -857 Descending FlightAware ADS-B
Thu 12:18:56 AM 29.9935 -95.2701 270° West 135 155 900 -545 Descending FlightAware ADS-B
Thu 12:19:12 AM 29.9934 -95.2810 269° West 136 157 800 -545 Descending FlightAware ADS-B
Thu 12:19:18 AM 29.9935 -95.2857 271° West 138 159 700 -706 Descending FlightAware ADS-B
Thu 12:19:29 AM 29.9935 -95.2939 270° West 138 159 600 -692 Descending FlightAware ADS-B
Thu 12:19:44 AM 29.9935 -95.3052 270° West 140 161 400 -889 Descending FlightAware ADS-B
Thu 12:19:56 AM 29.9935 -95.3141 270° West 141 162 200 -1,000 Descending FlightAware ADS-B
Thu 12:20:13 AM 29.9935 -95.3268 270° West 141 162 -706 Descending FlightAware ADS-B
Thu 12:20:30 AM 29.9935 -95.3386 270° West 141 162  Level FlightAware ADS-B

Login

Don't have an account? Register now (free) for customized features, flight alerts, and more!